createdAt,value
2017-11-17T00:00:32.886Z,7.73
2017-11-17T00:03:03.670Z,7.50
2017-11-17T00:05:34.421Z,7.60
2017-11-17T00:08:05.203Z,7.37
2017-11-17T00:10:35.977Z,7.60
2017-11-17T00:13:06.761Z,7.33
2017-11-17T00:15:37.539Z,7.27
2017-11-17T00:18:08.306Z,7.53
2017-11-17T00:20:39.065Z,7.30
2017-11-17T00:23:09.878Z,7.47
2017-11-17T00:25:40.650Z,7.53
2017-11-17T00:28:11.551Z,7.43
2017-11-17T00:30:42.290Z,7.37
2017-11-17T00:33:13.056Z,7.40
2017-11-17T00:35:43.816Z,7.73
2017-11-17T00:38:14.569Z,8.00
2017-11-17T00:40:45.326Z,7.60
2017-11-17T00:43:16.107Z,7.90
2017-11-17T00:45:46.877Z,7.60
2017-11-17T00:48:17.623Z,8.17
2017-11-17T00:50:48.426Z,7.90
2017-11-17T00:53:19.177Z,8.07
2017-11-17T00:55:49.949Z,7.93
2017-11-17T00:58:20.716Z,7.97
2017-11-17T01:00:51.515Z,7.53
2017-11-17T01:03:22.260Z,7.30
2017-11-17T01:05:53.029Z,7.53
2017-11-17T01:08:23.816Z,8.33
2017-11-17T01:10:54.562Z,7.97
2017-11-17T01:13:25.445Z,7.97
2017-11-17T01:15:56.185Z,7.87
2017-11-17T01:18:26.997Z,8.33
2017-11-17T01:20:57.762Z,8.43
2017-11-17T01:23:28.536Z,8.20
2017-11-17T01:25:59.300Z,7.40
2017-11-17T01:28:30.080Z,7.60
2017-11-17T01:31:00.826Z,8.00
2017-11-17T01:33:31.598Z,8.43
2017-11-17T01:36:02.381Z,8.07
2017-11-17T01:38:33.134Z,7.57
2017-11-17T01:41:03.913Z,7.93
2017-11-17T01:43:34.697Z,7.93
2017-11-17T01:46:05.470Z,8.07
2017-11-17T01:48:36.225Z,8.10
2017-11-17T01:51:07.019Z,7.63
2017-11-17T01:53:37.818Z,8.80
2017-11-17T01:56:08.586Z,7.60
2017-11-17T01:58:39.353Z,8.37
2017-11-17T02:01:10.143Z,7.97
2017-11-17T02:03:40.882Z,8.33
2017-11-17T02:06:11.673Z,7.57
2017-11-17T02:08:42.430Z,7.50
2017-11-17T02:11:13.197Z,8.03
2017-11-17T02:13:43.973Z,8.10
2017-11-17T02:16:14.729Z,8.20
2017-11-17T02:18:45.492Z,7.43
2017-11-17T02:21:16.266Z,8.30
2017-11-17T02:23:47.070Z,8.13
2017-11-17T02:26:17.829Z,8.30
2017-11-17T02:28:48.592Z,8.20
2017-11-17T02:31:19.347Z,8.87
2017-11-17T02:33:50.125Z,8.17
2017-11-17T02:36:20.881Z,8.57
2017-11-17T02:38:51.645Z,8.73
2017-11-17T02:41:22.438Z,8.10
2017-11-17T02:43:53.198Z,8.13
2017-11-17T02:46:23.958Z,8.13
2017-11-17T02:48:54.758Z,8.40
2017-11-17T02:51:25.513Z,8.10
2017-11-17T02:53:56.289Z,8.20
2017-11-17T02:56:27.037Z,7.80
2017-11-17T02:58:57.795Z,8.27
2017-11-17T03:01:28.560Z,8.37
2017-11-17T03:03:59.330Z,8.53
2017-11-17T03:06:30.095Z,8.10
2017-11-17T03:09:00.913Z,8.30
2017-11-17T03:11:31.673Z,7.93
2017-11-17T03:14:02.412Z,8.23
2017-11-17T03:16:33.226Z,8.40
2017-11-17T03:19:03.972Z,8.17
2017-11-17T03:21:34.786Z,8.50
2017-11-17T03:24:05.516Z,8.73
2017-11-17T03:26:36.301Z,8.43
2017-11-17T03:29:07.110Z,8.83
2017-11-17T03:31:37.877Z,8.37
2017-11-17T03:34:08.639Z,8.10
2017-11-17T03:36:39.408Z,8.90
2017-11-17T03:39:10.154Z,9.40
2017-11-17T03:41:40.946Z,8.50
2017-11-17T03:44:11.706Z,8.33
2017-11-17T03:46:42.490Z,8.67
2017-11-17T03:49:13.278Z,8.83
2017-11-17T03:51:44.054Z,9.07
2017-11-17T03:54:14.829Z,8.50
2017-11-17T03:56:45.590Z,9.17
2017-11-17T03:59:16.358Z,8.40
2017-11-17T04:01:47.147Z,8.47
2017-11-17T04:04:17.902Z,9.07
2017-11-17T04:06:48.676Z,8.57
2017-11-17T04:09:19.423Z,8.83
2017-11-17T04:11:50.205Z,9.07
2017-11-17T04:14:20.974Z,8.97
2017-11-17T04:16:51.759Z,8.50
2017-11-17T04:19:22.539Z,8.67
2017-11-17T04:21:53.290Z,8.40
2017-11-17T04:24:24.046Z,8.90
2017-11-17T04:26:54.824Z,8.77
2017-11-17T04:29:25.557Z,9.13
2017-11-17T04:31:56.339Z,8.70
2017-11-17T04:34:27.092Z,8.73
2017-11-17T04:36:57.875Z,8.80
2017-11-17T04:39:28.633Z,9.03
2017-11-17T04:41:59.405Z,8.63
2017-11-17T04:44:30.199Z,8.93
2017-11-17T04:47:00.946Z,9.50
2017-11-17T04:49:31.745Z,9.10
2017-11-17T04:52:02.556Z,9.10
2017-11-17T04:54:33.306Z,8.77
2017-11-17T04:57:04.071Z,9.33
2017-11-17T04:59:34.830Z,8.73
2017-11-17T05:02:05.603Z,9.00
2017-11-17T05:04:36.389Z,8.93
2017-11-17T05:07:07.158Z,8.53
2017-11-17T05:09:37.939Z,8.80
2017-11-17T05:12:08.722Z,9.63
2017-11-17T05:14:39.526Z,9.27
2017-11-17T05:17:10.258Z,9.40
2017-11-17T05:19:41.045Z,8.90
2017-11-17T05:22:11.810Z,8.90
2017-11-17T05:24:42.609Z,9.13
2017-11-17T05:27:13.370Z,8.50
2017-11-17T05:29:44.140Z,8.57
2017-11-17T05:32:14.913Z,9.40
2017-11-17T05:34:45.666Z,9.43
2017-11-17T05:37:16.493Z,8.97
2017-11-17T05:39:47.265Z,9.13
2017-11-17T05:42:18.037Z,9.57
2017-11-17T05:44:48.798Z,9.30
2017-11-17T05:47:19.589Z,9.30
2017-11-17T05:49:50.345Z,8.73
2017-11-17T05:52:21.123Z,8.90
2017-11-17T05:54:51.897Z,8.73
2017-11-17T05:57:22.690Z,9.10
2017-11-17T05:59:53.452Z,8.93
2017-11-17T06:02:24.249Z,8.23
2017-11-17T06:04:54.985Z,8.67
2017-11-17T06:07:25.768Z,9.43
2017-11-17T06:09:56.528Z,9.73
2017-11-17T06:12:27.282Z,8.80
2017-11-17T06:14:58.046Z,9.37
2017-11-17T06:17:28.842Z,9.47
2017-11-17T06:19:59.633Z,8.67
2017-11-17T06:22:30.396Z,8.50
2017-11-17T06:25:01.182Z,8.93
2017-11-17T06:27:31.960Z,9.10
2017-11-17T06:30:02.723Z,8.73
2017-11-17T06:32:33.527Z,9.90
2017-11-17T06:35:04.306Z,8.80
2017-11-17T06:37:35.079Z,9.07
2017-11-17T06:40:05.858Z,8.60
2017-11-17T06:42:36.626Z,9.03
2017-11-17T06:45:07.406Z,9.20
2017-11-17T06:47:38.162Z,8.80
2017-11-17T06:50:08.934Z,8.63
2017-11-17T06:52:39.681Z,8.70
2017-11-17T06:55:10.458Z,9.23
2017-11-17T06:57:41.240Z,9.33
2017-11-17T07:00:12.018Z,8.97
2017-11-17T07:02:42.781Z,8.63
2017-11-17T07:05:13.549Z,8.77
2017-11-17T07:07:44.335Z,9.20
2017-11-17T07:10:15.097Z,8.83
2017-11-17T07:12:45.845Z,9.23
2017-11-17T07:15:16.627Z,8.63
2017-11-17T07:17:47.441Z,9.27
2017-11-17T07:20:18.203Z,8.90
2017-11-17T07:22:48.990Z,9.40
2017-11-17T07:25:19.736Z,8.90
2017-11-17T07:27:50.510Z,9.30
2017-11-17T07:30:21.309Z,9.77
2017-11-17T07:32:52.073Z,8.77
2017-11-17T07:35:22.841Z,8.77
2017-11-17T07:37:53.614Z,8.63
2017-11-17T07:40:24.378Z,8.63
2017-11-17T07:42:55.133Z,8.80
2017-11-17T07:45:25.887Z,8.53
2017-11-17T07:47:56.670Z,8.33
2017-11-17T07:50:27.442Z,9.03
2017-11-17T07:52:58.199Z,9.00
2017-11-17T07:55:28.962Z,8.60
2017-11-17T07:57:59.735Z,8.97
2017-11-17T08:00:30.520Z,8.87
2017-11-17T08:03:01.273Z,9.20
2017-11-17T08:05:32.039Z,8.80
2017-11-17T08:08:02.809Z,8.67
2017-11-17T08:10:34.406Z,8.70
2017-11-17T08:13:05.178Z,8.80
2017-11-17T08:15:35.961Z,9.07
2017-11-17T08:18:06.721Z,8.60
2017-11-17T08:20:37.509Z,8.93
2017-11-17T08:23:08.290Z,9.00
2017-11-17T08:25:39.034Z,8.67
2017-11-17T08:28:09.797Z,9.00
2017-11-17T08:30:40.567Z,8.97
2017-11-17T08:33:11.385Z,8.83
2017-11-17T08:35:42.157Z,8.17
2017-11-17T08:38:12.902Z,8.27
2017-11-17T08:40:43.675Z,8.70
2017-11-17T08:43:14.434Z,8.50
2017-11-17T08:45:45.216Z,9.10
2017-11-17T08:48:15.998Z,9.03
2017-11-17T08:50:46.754Z,8.43
2017-11-17T08:53:17.540Z,8.80
2017-11-17T08:55:48.308Z,9.03
2017-11-17T08:58:19.070Z,8.83
2017-11-17T09:00:49.822Z,8.73
2017-11-17T09:03:20.601Z,8.90
2017-11-17T09:05:51.373Z,8.87
2017-11-17T09:08:22.158Z,8.63
2017-11-17T09:10:52.946Z,9.07
2017-11-17T09:13:23.691Z,8.90
2017-11-17T09:15:54.446Z,9.13
2017-11-17T09:18:25.209Z,8.43
2017-11-17T09:20:56.006Z,9.00
2017-11-17T09:23:26.766Z,9.63
2017-11-17T09:25:57.557Z,9.20
2017-11-17T09:28:28.309Z,9.43
2017-11-17T09:30:59.074Z,9.30
2017-11-17T09:33:29.829Z,9.57
2017-11-17T09:36:00.607Z,8.87
2017-11-17T09:38:31.354Z,9.33
2017-11-17T09:41:02.121Z,9.20
2017-11-17T09:43:32.887Z,8.50
2017-11-17T09:46:03.650Z,8.83
2017-11-17T09:48:34.417Z,9.37
2017-11-17T09:51:05.178Z,8.73
2017-11-17T09:53:35.950Z,8.97
2017-11-17T09:56:06.730Z,9.00
2017-11-17T09:58:37.645Z,9.60
2017-11-17T10:01:08.418Z,9.10
2017-11-17T10:03:39.206Z,9.53
2017-11-17T10:06:09.992Z,9.20
2017-11-17T10:08:40.742Z,8.73
2017-11-17T10:11:11.514Z,8.40
2017-11-17T10:13:42.269Z,9.20
2017-11-17T10:16:13.048Z,8.80
2017-11-17T10:18:43.801Z,9.30
2017-11-17T10:21:14.562Z,8.50
2017-11-17T10:23:45.329Z,8.67
2017-11-17T10:26:16.124Z,8.77
2017-11-17T10:28:46.866Z,8.43
2017-11-17T10:31:17.672Z,8.00
2017-11-17T10:33:48.422Z,8.63
2017-11-17T10:36:19.192Z,8.03
2017-11-17T10:38:49.966Z,7.90
2017-11-17T10:41:20.726Z,8.13
2017-11-17T10:43:51.517Z,8.07
2017-11-17T10:46:22.298Z,8.17
2017-11-17T10:48:53.066Z,8.47
2017-11-17T10:51:23.802Z,8.10
2017-11-17T10:53:54.583Z,8.37
2017-11-17T10:56:25.357Z,8.10
2017-11-17T10:58:56.124Z,8.47
2017-11-17T11:01:26.878Z,9.20
2017-11-17T11:03:57.657Z,8.17
2017-11-17T11:06:28.448Z,7.93
2017-11-17T11:08:59.193Z,8.03
2017-11-17T11:11:29.974Z,7.57
2017-11-17T11:14:00.718Z,7.60
2017-11-17T11:16:31.508Z,8.00
2017-11-17T11:19:02.269Z,7.87
2017-11-17T11:21:33.031Z,8.67
2017-11-17T11:24:03.791Z,8.17
2017-11-17T11:26:34.577Z,8.20
2017-11-17T11:29:05.341Z,7.63
2017-11-17T11:31:36.098Z,7.73
2017-11-17T11:34:06.874Z,8.50
2017-11-17T11:36:37.623Z,8.33
2017-11-17T11:39:08.406Z,7.60
2017-11-17T11:41:39.178Z,8.17
2017-11-17T11:44:09.936Z,8.00
2017-11-17T11:46:40.910Z,8.07
2017-11-17T11:49:11.677Z,7.93
2017-11-17T11:51:42.449Z,7.93
2017-11-17T11:54:13.213Z,8.43
2017-11-17T11:56:43.974Z,8.13
2017-11-17T11:59:14.728Z,7.80
2017-11-17T12:01:45.561Z,7.77
2017-11-17T12:04:16.338Z,7.80
2017-11-17T12:06:47.098Z,7.47
2017-11-17T12:09:17.849Z,7.90
2017-11-17T12:11:48.649Z,7.80
2017-11-17T12:14:19.410Z,7.20
2017-11-17T12:16:50.192Z,7.33
2017-11-17T12:19:20.962Z,7.70
2017-11-17T12:21:51.705Z,7.40
2017-11-17T12:24:22.537Z,7.67
2017-11-17T12:26:53.278Z,7.00
2017-11-17T12:29:24.034Z,7.13
2017-11-17T12:31:54.814Z,8.07
2017-11-17T12:34:25.588Z,7.30
2017-11-17T12:36:56.377Z,7.13
2017-11-17T12:39:27.130Z,7.30
2017-11-17T12:41:57.906Z,7.63
2017-11-17T12:44:28.681Z,7.57
2017-11-17T12:46:59.433Z,7.77
2017-11-17T12:49:30.207Z,7.20
2017-11-17T12:52:01.005Z,7.63
2017-11-17T12:54:31.766Z,7.60
2017-11-17T12:57:02.534Z,6.70
2017-11-17T12:59:33.317Z,6.67
2017-11-17T13:02:04.099Z,7.90
2017-11-17T13:04:34.831Z,6.93
2017-11-17T13:07:05.597Z,6.90
2017-11-17T13:09:36.358Z,6.97
2017-11-17T13:12:07.133Z,6.90
2017-11-17T13:14:37.908Z,7.20
2017-11-17T13:17:08.682Z,7.60
2017-11-17T13:19:39.457Z,6.77
2017-11-17T13:22:10.209Z,7.57
2017-11-17T13:24:40.974Z,7.17
2017-11-17T13:27:11.725Z,6.97
2017-11-17T13:29:42.499Z,6.87
2017-11-17T13:32:13.266Z,6.93
2017-11-17T13:34:44.001Z,6.93
2017-11-17T13:37:14.785Z,6.50
2017-11-17T13:39:45.610Z,7.20
2017-11-17T13:42:16.366Z,7.13
2017-11-17T13:44:47.146Z,7.10
2017-11-17T13:47:17.885Z,7.00
2017-11-17T13:49:48.645Z,6.53
2017-11-17T13:52:19.445Z,6.97
2017-11-17T13:54:50.211Z,6.77
2017-11-17T13:57:20.998Z,6.73
2017-11-17T13:59:51.777Z,6.67
2017-11-17T14:02:22.513Z,6.70
2017-11-17T14:04:53.295Z,7.07
2017-11-17T14:07:24.070Z,7.17
2017-11-17T14:09:54.848Z,7.40
2017-11-17T14:12:25.634Z,6.87
2017-11-17T14:14:56.377Z,7.13
2017-11-17T14:17:27.149Z,7.10
2017-11-17T14:19:57.918Z,6.93
2017-11-17T14:22:28.677Z,6.67
2017-11-17T14:24:59.456Z,6.83
2017-11-17T14:27:30.220Z,6.70
2017-11-17T14:30:00.990Z,7.17
2017-11-17T14:32:31.767Z,7.23
2017-11-17T14:35:02.545Z,7.10
2017-11-17T14:37:33.313Z,6.97
2017-11-17T14:40:04.090Z,7.30
2017-11-17T14:42:34.841Z,7.17
2017-11-17T14:45:05.608Z,7.20
2017-11-17T14:47:36.382Z,7.17
2017-11-17T14:50:07.145Z,7.63
2017-11-17T14:52:37.898Z,8.03
2017-11-17T14:55:08.686Z,7.90
2017-11-17T14:57:39.442Z,7.10
2017-11-17T15:00:10.294Z,6.90
2017-11-17T15:02:41.050Z,7.37
2017-11-17T15:05:11.830Z,8.00
2017-11-17T15:07:42.599Z,7.97
2017-11-17T15:10:13.391Z,7.20
2017-11-17T15:12:44.145Z,7.83
2017-11-17T15:15:14.929Z,7.37
2017-11-17T15:17:45.669Z,7.43
2017-11-17T15:20:16.437Z,7.47
2017-11-17T15:22:47.239Z,8.17
2017-11-17T15:25:18.014Z,7.30
2017-11-17T15:27:48.781Z,7.77
2017-11-17T15:30:19.533Z,7.77
2017-11-17T15:32:50.342Z,7.67
2017-11-17T15:35:21.085Z,7.43
2017-11-17T15:37:51.862Z,8.20
2017-11-17T15:40:22.609Z,8.30
2017-11-17T15:42:53.377Z,7.43
2017-11-17T15:45:24.142Z,7.60
2017-11-17T15:47:54.910Z,7.80
2017-11-17T15:50:25.709Z,8.00
2017-11-17T15:52:56.458Z,8.00
2017-11-17T15:55:27.229Z,8.40
2017-11-17T15:57:57.995Z,7.30
2017-11-17T16:00:28.773Z,8.47
2017-11-17T16:02:59.524Z,8.53
2017-11-17T16:05:30.305Z,8.60
2017-11-17T16:08:01.070Z,8.50
2017-11-17T16:10:31.845Z,8.40
2017-11-17T16:13:02.619Z,8.10
2017-11-17T16:15:33.395Z,8.30
2017-11-17T16:18:04.142Z,8.37
2017-11-17T16:20:34.940Z,8.80
2017-11-17T16:23:05.694Z,8.93
2017-11-17T16:25:36.469Z,8.63
2017-11-17T16:28:07.227Z,8.57
2017-11-17T16:30:38.042Z,8.23
2017-11-17T16:33:08.782Z,9.10
2017-11-17T16:35:39.554Z,8.70
2017-11-17T16:38:10.326Z,8.53
2017-11-17T16:40:41.104Z,8.20
2017-11-17T16:43:11.846Z,8.17
2017-11-17T16:45:42.610Z,8.70
2017-11-17T16:48:13.382Z,9.17
2017-11-17T16:50:44.131Z,8.93
2017-11-17T16:53:14.897Z,8.73
2017-11-17T16:55:45.657Z,9.07
2017-11-17T16:58:16.433Z,9.80
2017-11-17T17:00:47.187Z,8.17
2017-11-17T17:03:18.010Z,8.77
2017-11-17T17:05:48.793Z,7.97
2017-11-17T17:08:19.545Z,9.13
2017-11-17T17:10:50.333Z,9.20
2017-11-17T17:13:21.085Z,8.83
2017-11-17T17:15:51.869Z,9.80
2017-11-17T17:18:22.666Z,9.63
2017-11-17T17:20:53.446Z,9.70
2017-11-17T17:23:24.212Z,8.33
2017-11-17T17:25:54.975Z,8.77
2017-11-17T17:28:25.753Z,9.30
2017-11-17T17:30:56.522Z,9.57
2017-11-17T17:33:27.317Z,9.20
2017-11-17T17:35:58.090Z,9.20
2017-11-17T17:38:28.836Z,9.50
2017-11-17T17:40:59.640Z,9.57
2017-11-17T17:43:31.430Z,9.73
2017-11-17T17:46:02.202Z,8.90
2017-11-17T17:48:32.969Z,10.67
2017-11-17T17:51:03.722Z,10.17
2017-11-17T17:53:34.477Z,9.97
2017-11-17T17:56:05.258Z,10.00
2017-11-17T17:58:36.053Z,10.10
2017-11-17T18:01:06.822Z,9.60
2017-11-17T18:03:37.618Z,10.73
2017-11-17T18:06:08.391Z,9.87
2017-11-17T18:08:39.166Z,9.40
2017-11-17T18:11:09.969Z,9.40
2017-11-17T18:13:40.729Z,9.53
2017-11-17T18:16:11.511Z,10.20
2017-11-17T18:18:42.298Z,10.17
2017-11-17T18:21:13.053Z,10.33
2017-11-17T18:23:43.841Z,10.53
2017-11-17T18:26:14.593Z,10.43
2017-11-17T18:28:45.388Z,10.57
2017-11-17T18:31:16.188Z,10.53
2017-11-17T18:33:46.924Z,10.30
2017-11-17T18:36:17.685Z,10.27
2017-11-17T18:38:48.500Z,10.43
2017-11-17T18:41:19.271Z,10.27
2017-11-17T18:43:50.007Z,10.57
2017-11-17T18:46:20.857Z,10.50
2017-11-17T18:48:51.639Z,10.87
2017-11-17T18:51:22.448Z,10.67
2017-11-17T18:53:53.223Z,10.63
2017-11-17T18:56:23.980Z,10.40
2017-11-17T18:58:54.785Z,10.17
2017-11-17T19:01:25.521Z,10.67
2017-11-17T19:03:56.275Z,10.63
2017-11-17T19:06:27.068Z,10.07
2017-11-17T19:08:57.838Z,11.17
2017-11-17T19:11:28.637Z,10.50
2017-11-17T19:13:59.417Z,10.67
2017-11-17T19:16:30.244Z,11.43
2017-11-17T19:19:00.957Z,11.13
2017-11-17T19:21:31.706Z,11.23
2017-11-17T19:24:02.504Z,11.43
2017-11-17T19:26:33.246Z,11.03
2017-11-17T19:29:04.006Z,10.50
2017-11-17T19:31:34.779Z,10.60
2017-11-17T19:34:05.588Z,11.80
2017-11-17T19:36:36.383Z,11.50
2017-11-17T19:39:07.160Z,10.70
2017-11-17T19:41:37.961Z,11.80
2017-11-17T19:44:08.732Z,11.33
2017-11-17T19:46:39.510Z,11.97
2017-11-17T19:49:10.332Z,12.17
2017-11-17T19:51:41.165Z,11.30
2017-11-17T19:54:11.958Z,11.67
2017-11-17T19:56:42.742Z,11.87
2017-11-17T19:59:13.520Z,10.70
2017-11-17T20:01:44.338Z,10.80
2017-11-17T20:04:15.195Z,11.70
2017-11-17T20:06:45.939Z,10.87
2017-11-17T20:09:16.747Z,11.63
2017-11-17T20:11:47.518Z,12.13
2017-11-17T20:14:18.309Z,11.40
2017-11-17T20:16:49.096Z,11.80
2017-11-17T20:19:19.827Z,11.10
2017-11-17T20:21:50.599Z,11.27
2017-11-17T20:24:21.350Z,11.30
2017-11-17T20:26:52.171Z,10.77
2017-11-17T20:29:22.913Z,11.13
2017-11-17T20:31:53.690Z,11.17
2017-11-17T20:34:24.470Z,11.27
2017-11-17T20:36:55.243Z,11.50
2017-11-17T20:39:26.018Z,11.13
2017-11-17T20:41:56.785Z,11.13
2017-11-17T20:44:27.553Z,11.03
2017-11-17T20:46:58.315Z,11.03
2017-11-17T20:49:29.088Z,11.43
2017-11-17T20:51:59.871Z,11.67
2017-11-17T20:54:30.655Z,10.60
2017-11-17T20:57:01.398Z,10.90
2017-11-17T20:59:32.187Z,10.80
2017-11-17T21:02:02.944Z,11.23
2017-11-17T21:04:33.730Z,10.33
2017-11-17T21:07:04.494Z,10.90
2017-11-17T21:09:35.253Z,10.80
2017-11-17T21:12:06.037Z,11.17
2017-11-17T21:14:36.816Z,11.77
2017-11-17T21:17:07.605Z,11.80
2017-11-17T21:19:38.367Z,11.60
2017-11-17T21:22:09.160Z,11.07
2017-11-17T21:24:39.921Z,11.10
2017-11-17T21:27:10.705Z,11.27
2017-11-17T21:29:41.494Z,11.40
2017-11-17T21:32:12.258Z,10.80
2017-11-17T21:34:43.042Z,12.40
2017-11-17T21:37:13.801Z,12.63
2017-11-17T21:39:44.598Z,11.53
2017-11-17T21:42:15.360Z,12.13
2017-11-17T21:44:46.143Z,12.10
2017-11-17T21:47:16.914Z,12.47
2017-11-17T21:49:47.682Z,12.70
2017-11-17T21:52:18.450Z,12.30
2017-11-17T21:54:49.213Z,11.23
2017-11-17T21:57:19.969Z,11.93
2017-11-17T21:59:50.740Z,12.60
2017-11-17T22:02:21.509Z,13.10
2017-11-17T22:04:52.250Z,12.03
2017-11-17T22:07:23.040Z,12.47
2017-11-17T22:09:53.822Z,11.40
2017-11-17T22:12:24.578Z,12.50
2017-11-17T22:14:55.360Z,11.37
2017-11-17T22:17:26.100Z,11.80
2017-11-17T22:19:56.900Z,11.33
2017-11-17T22:22:27.666Z,11.90
2017-11-17T22:24:58.445Z,12.60
2017-11-17T22:27:29.226Z,12.20
2017-11-17T22:29:59.987Z,12.23
2017-11-17T22:32:30.770Z,11.70
2017-11-17T22:35:01.534Z,12.03
2017-11-17T22:37:32.372Z,11.80
2017-11-17T22:40:03.134Z,11.47
2017-11-17T22:42:33.907Z,11.90
2017-11-17T22:45:04.666Z,10.73
2017-11-17T22:47:35.436Z,11.10
2017-11-17T22:50:06.188Z,11.80
2017-11-17T22:52:36.961Z,11.20
2017-11-17T22:55:07.748Z,10.97
2017-11-17T22:57:38.510Z,11.03
2017-11-17T23:00:09.294Z,11.83
2017-11-17T23:02:40.062Z,10.67
2017-11-17T23:05:10.826Z,10.77
2017-11-17T23:07:41.585Z,10.83
2017-11-17T23:10:12.370Z,11.07
2017-11-17T23:12:43.146Z,10.70
2017-11-17T23:15:13.909Z,10.67
2017-11-17T23:17:44.699Z,10.43
2017-11-17T23:20:15.470Z,10.20
2017-11-17T23:22:46.218Z,10.97
2017-11-17T23:25:16.997Z,10.67
2017-11-17T23:27:47.755Z,10.63
2017-11-17T23:30:18.528Z,10.40
2017-11-17T23:32:49.302Z,11.13
2017-11-17T23:35:20.062Z,11.20
2017-11-17T23:37:50.846Z,11.13
2017-11-17T23:40:21.614Z,10.33
2017-11-17T23:42:52.386Z,11.43
2017-11-17T23:45:23.161Z,11.10
2017-11-17T23:47:53.917Z,10.27
2017-11-17T23:50:24.765Z,10.47
2017-11-17T23:52:55.522Z,10.67
2017-11-17T23:55:26.305Z,10.43
2017-11-17T23:57:57.053Z,11.23
